createdAt,value
2023-04-20T01:27:18.391Z,8.40
2023-04-20T01:29:45.836Z,8.70
2023-04-20T01:32:13.080Z,8.40
2023-04-20T01:34:40.748Z,8.50
2023-04-20T01:37:09.995Z,8.50
2023-04-20T01:39:40.936Z,8.50
2023-04-20T01:42:07.824Z,8.50
2023-04-20T01:44:34.566Z,8.50
2023-04-20T01:47:01.558Z,8.60
2023-04-20T01:49:28.272Z,8.60
2023-04-20T01:51:55.631Z,8.60
2023-04-20T01:54:22.440Z,8.60
2023-04-20T01:56:49.122Z,8.60
2023-04-20T01:59:16.222Z,8.60
2023-04-20T02:01:43.153Z,8.60
2023-04-20T02:04:09.903Z,8.60
2023-04-20T02:06:36.719Z,8.70
2023-04-20T02:09:03.490Z,8.90
2023-04-20T02:11:32.418Z,8.80
2023-04-20T02:13:59.117Z,8.80
2023-04-20T02:16:31.545Z,8.70
2023-04-20T02:18:58.483Z,8.80
2023-04-20T02:21:25.367Z,8.70
2023-04-20T02:23:56.452Z,8.80
2023-04-20T02:26:25.648Z,8.80
2023-04-20T02:28:52.438Z,8.80
2023-04-20T02:31:19.132Z,8.80
2023-04-20T02:33:47.746Z,8.70
2023-04-20T02:36:14.443Z,8.80
2023-04-20T02:38:41.112Z,8.70
2023-04-20T02:41:10.156Z,8.70
2023-04-20T02:43:36.914Z,8.90
2023-04-20T02:46:06.039Z,8.80
2023-04-20T02:48:32.717Z,8.70
2023-04-20T02:50:59.376Z,8.80
2023-04-20T02:53:28.281Z,8.80
2023-04-20T02:55:57.207Z,8.80
2023-04-20T02:58:23.927Z,8.80
2023-04-20T03:00:50.687Z,8.80
2023-04-20T03:03:18.065Z,8.80
2023-04-20T03:05:44.880Z,8.80
2023-04-20T03:08:14.073Z,8.90
2023-04-20T03:10:43.275Z,8.90
2023-04-20T03:13:09.996Z,8.80
2023-04-20T03:15:36.677Z,8.80
2023-04-20T03:18:03.926Z,8.80
2023-04-20T03:20:30.909Z,8.80
2023-04-20T03:23:00.045Z,8.80
2023-04-20T03:25:29.515Z,8.90
2023-04-20T03:27:56.270Z,8.80
2023-04-20T03:30:22.973Z,8.70
2023-04-20T03:32:49.699Z,8.60
2023-04-20T03:35:20.785Z,8.50
2023-04-20T03:37:49.949Z,8.40
2023-04-20T03:40:16.724Z,8.40
2023-04-20T03:42:43.391Z,8.40
2023-04-20T03:45:10.732Z,8.30
2023-04-20T03:47:37.440Z,8.30
2023-04-20T03:50:04.699Z,8.30
2023-04-20T03:52:31.448Z,8.30
2023-04-20T03:54:58.117Z,8.30
2023-04-20T03:57:24.941Z,8.30
2023-04-20T03:59:51.632Z,8.20
2023-04-20T04:02:18.448Z,8.20
2023-04-20T04:04:47.776Z,8.20
2023-04-20T04:07:14.598Z,8.20
2023-04-20T04:09:43.721Z,8.20
2023-04-20T04:12:12.643Z,8.30
2023-04-20T04:14:39.486Z,8.30
2023-04-20T04:17:07.968Z,8.20
2023-04-20T04:19:34.874Z,8.10
2023-04-20T04:22:01.547Z,8.10
2023-04-20T04:24:28.198Z,8.10
2023-04-20T04:26:59.021Z,8.10
2023-04-20T04:29:29.248Z,8.00
2023-04-20T04:31:55.945Z,8.00
2023-04-20T04:34:24.037Z,7.90
2023-04-20T04:36:50.807Z,7.90
2023-04-20T04:39:17.733Z,7.80
2023-04-20T04:41:44.711Z,7.90
2023-04-20T04:44:13.634Z,7.80
2023-04-20T04:46:40.470Z,7.80
2023-04-20T04:49:10.548Z,7.90
2023-04-20T04:51:37.393Z,7.90
2023-04-20T04:54:04.383Z,8.00
2023-04-20T04:56:31.607Z,8.00
2023-04-20T04:58:58.239Z,7.90
2023-04-20T05:01:27.175Z,7.90
2023-04-20T05:03:54.003Z,8.00
2023-04-20T05:06:20.876Z,8.00
2023-04-20T05:08:49.740Z,8.00
2023-04-20T05:11:16.397Z,7.90
2023-04-20T05:13:43.211Z,7.80
2023-04-20T05:16:09.928Z,8.00
2023-04-20T05:18:36.641Z,7.90
2023-04-20T05:21:03.384Z,8.00
2023-04-20T05:23:32.323Z,7.90
2023-04-20T05:25:59.186Z,7.90
2023-04-20T05:28:26.832Z,8.00
2023-04-20T05:30:55.775Z,7.80
2023-04-20T05:33:22.689Z,7.80
2023-04-20T05:35:51.515Z,7.80
2023-04-20T05:38:20.623Z,7.70
2023-04-20T05:40:47.293Z,7.60
2023-04-20T05:43:17.333Z,7.60
2023-04-20T05:45:43.925Z,7.70
2023-04-20T05:48:10.848Z,7.70
2023-04-20T05:50:37.579Z,7.70
2023-04-20T05:53:04.380Z,7.70
2023-04-20T05:55:31.145Z,7.60
2023-04-20T05:57:57.863Z,7.60
2023-04-20T06:00:26.103Z,7.60
2023-04-20T06:02:55.720Z,7.60
2023-04-20T06:05:22.720Z,7.50
2023-04-20T06:07:52.113Z,7.60
2023-04-20T06:12:48.436Z,7.50
2023-04-20T06:15:15.393Z,7.50
2023-04-20T06:17:42.219Z,7.50
2023-04-20T06:20:10.645Z,7.50
2023-04-20T06:22:42.253Z,7.60
2023-04-20T06:25:10.497Z,7.60
2023-04-20T06:27:37.194Z,7.60
2023-04-20T06:30:04.554Z,7.70
2023-04-20T06:32:31.437Z,7.70
2023-04-20T06:34:58.153Z,7.70
2023-04-20T06:37:24.825Z,7.70
2023-04-20T06:39:57.679Z,7.70
2023-04-20T06:42:24.434Z,7.80
2023-04-20T06:44:53.344Z,7.80
2023-04-20T06:47:22.680Z,7.80
2023-04-20T06:49:49.552Z,7.80
2023-04-20T06:52:16.226Z,7.80
2023-04-20T06:54:42.949Z,7.80
2023-04-20T06:57:09.660Z,7.80
2023-04-20T06:59:36.414Z,7.70
2023-04-20T07:02:03.326Z,7.70
2023-04-20T07:04:32.410Z,7.70
2023-04-20T07:07:01.843Z,7.70
2023-04-20T07:09:31.095Z,7.70
2023-04-20T07:12:00.976Z,7.60
2023-04-20T07:14:27.745Z,7.60
2023-04-20T07:16:54.861Z,7.60
2023-04-20T07:19:21.711Z,7.70
2023-04-20T07:21:51.264Z,7.80
2023-04-20T07:24:18.057Z,7.90
2023-04-20T07:26:44.758Z,7.90
2023-04-20T07:29:11.938Z,7.90
2023-04-20T07:31:40.979Z,7.90
2023-04-20T07:34:07.821Z,8.10
2023-04-20T07:36:34.709Z,8.10
2023-04-20T07:39:01.484Z,8.00
2023-04-20T07:41:28.187Z,8.00
2023-04-20T07:43:54.880Z,8.10
2023-04-20T07:46:22.867Z,8.20
2023-04-20T07:48:49.872Z,8.20
2023-04-20T07:51:16.650Z,8.10
2023-04-20T07:53:47.876Z,8.10
2023-04-20T07:56:14.617Z,8.00
2023-04-20T07:58:41.334Z,8.00
2023-04-20T08:01:11.250Z,8.00
2023-04-20T08:03:38.270Z,8.00
2023-04-20T08:06:09.720Z,8.10
2023-04-20T08:08:36.634Z,8.20
2023-04-20T08:11:03.354Z,8.20
2023-04-20T08:13:30.896Z,8.20
2023-04-20T08:15:57.795Z,8.10
2023-04-20T08:18:26.827Z,8.00
2023-04-20T08:20:53.509Z,8.00
2023-04-20T08:23:20.370Z,8.00
2023-04-20T08:25:47.096Z,8.00
2023-04-20T08:28:29.473Z,8.10
2023-04-20T08:31:01.927Z,8.10
2023-04-20T08:33:28.744Z,8.20
2023-04-20T08:35:55.461Z,8.20
2023-04-20T08:38:32.852Z,8.10
2023-04-20T08:41:05.812Z,8.10
2023-04-20T08:43:32.631Z,8.10
2023-04-20T08:46:02.657Z,8.20
2023-04-20T08:48:40.515Z,8.30
2023-04-20T08:51:07.300Z,8.30
2023-04-20T08:53:34.234Z,8.40
2023-04-20T08:56:03.769Z,8.40
2023-04-20T08:58:32.285Z,8.40
2023-04-20T09:01:04.387Z,8.40
2023-04-20T09:03:42.590Z,8.40
2023-04-20T09:06:21.015Z,8.60
2023-04-20T09:19:04.003Z,9.10
2023-04-20T09:24:03.002Z,9.20
2023-04-20T09:26:34.431Z,9.40
2023-04-20T09:29:15.911Z,9.60
2023-04-20T09:31:42.640Z,9.60
2023-04-20T09:36:44.312Z,9.80
2023-04-20T09:39:13.146Z,9.80
2023-04-20T09:41:41.120Z,9.80
2023-04-20T09:44:08.632Z,9.60
2023-04-20T09:46:37.253Z,9.50
2023-04-20T09:49:05.962Z,9.50
2023-04-20T09:51:35.438Z,9.50
2023-04-20T09:54:04.199Z,9.60
2023-04-20T09:56:32.351Z,9.50
2023-04-20T09:59:00.931Z,9.50
2023-04-20T10:01:35.852Z,9.60
2023-04-20T10:04:10.817Z,9.70
2023-04-20T10:06:38.037Z,9.60
2023-04-20T10:09:07.193Z,9.50
2023-04-20T10:11:52.296Z,9.50
2023-04-20T10:17:04.272Z,10.10
2023-04-20T10:19:41.073Z,10.20
2023-04-20T10:22:12.880Z,10.30
2023-04-20T10:24:44.057Z,10.40
2023-04-20T10:27:20.735Z,10.40
2023-04-20T10:29:52.331Z,10.40
2023-04-20T10:32:27.250Z,10.40
2023-04-20T10:35:08.637Z,10.10
2023-04-20T10:37:36.005Z,10.00
2023-04-20T10:40:06.806Z,9.90
2023-04-20T10:42:45.179Z,9.70
2023-04-20T10:45:13.033Z,9.70
2023-04-20T10:47:44.312Z,9.70
2023-04-20T10:50:14.040Z,9.70
2023-04-20T10:52:42.761Z,9.50
2023-04-20T10:55:22.598Z,9.60
2023-04-20T10:57:50.177Z,9.80
2023-04-20T11:00:18.402Z,10.20
2023-04-20T11:05:19.604Z,10.60
2023-04-20T11:07:55.429Z,10.50
2023-04-20T11:13:08.768Z,11.00
2023-04-20T11:15:35.816Z,11.00
2023-04-20T11:18:14.837Z,11.00
2023-04-20T11:20:55.378Z,10.60
2023-04-20T11:23:23.778Z,10.40
2023-04-20T11:25:55.142Z,10.40
2023-04-20T11:28:22.371Z,10.30
2023-04-20T11:30:50.553Z,10.50
2023-04-20T11:33:30.232Z,10.50
2023-04-20T11:35:58.055Z,10.70
2023-04-20T11:38:35.287Z,10.80
2023-04-20T11:41:04.647Z,10.90
2023-04-20T11:43:32.241Z,10.90
2023-04-20T11:46:01.047Z,10.90
2023-04-20T11:48:31.191Z,10.80
2023-04-20T11:50:58.642Z,10.70
2023-04-20T11:53:25.440Z,10.70
2023-04-20T11:55:52.111Z,10.60
2023-04-20T11:58:21.293Z,10.80
2023-04-20T12:00:48.459Z,10.80
2023-04-20T12:03:17.502Z,10.80
2023-04-20T12:05:47.004Z,10.90
2023-04-20T12:08:13.795Z,11.00
2023-04-20T12:10:41.573Z,11.00
2023-04-20T12:13:10.778Z,11.10
2023-04-20T12:15:37.469Z,11.30
2023-04-20T12:18:06.891Z,11.40
2023-04-20T12:20:36.218Z,11.30
2023-04-20T12:23:02.941Z,11.40
2023-04-20T12:25:29.634Z,11.50
2023-04-20T12:27:56.424Z,11.70
2023-04-20T12:30:23.299Z,11.80
2023-04-20T12:32:50.150Z,12.00
2023-04-20T12:35:16.926Z,12.10
2023-04-20T12:37:43.622Z,12.00
2023-04-20T12:40:13.932Z,11.80
2023-04-20T12:42:40.605Z,11.60
2023-04-20T12:45:07.874Z,11.60
2023-04-20T12:47:34.631Z,11.80
2023-04-20T12:50:01.342Z,12.10
2023-04-20T12:52:29.060Z,12.30
2023-04-20T12:54:55.828Z,12.30
2023-04-20T12:57:22.545Z,12.10
2023-04-20T12:59:49.254Z,12.10
2023-04-20T13:02:17.517Z,12.20
2023-04-20T13:04:45.504Z,12.20
2023-04-20T13:07:12.244Z,12.30
2023-04-20T13:09:39.014Z,12.20
2023-04-20T13:12:06.035Z,12.00
2023-04-20T13:14:32.842Z,11.80
2023-04-20T13:17:01.910Z,11.70
2023-04-20T13:19:31.963Z,11.90
2023-04-20T13:21:59.086Z,12.00
2023-04-20T13:24:28.303Z,12.20
2023-04-20T13:27:01.183Z,12.20
2023-04-20T13:29:28.246Z,12.00
2023-04-20T13:31:55.089Z,11.90
2023-04-20T13:34:21.956Z,11.90
2023-04-20T13:36:51.760Z,11.90
2023-04-20T13:39:20.036Z,12.00
2023-04-20T13:41:49.305Z,12.00
2023-04-20T13:44:16.525Z,12.00
2023-04-20T13:46:44.512Z,12.70
2023-04-20T13:49:13.381Z,12.90
2023-04-20T13:51:45.436Z,13.30
2023-04-20T13:54:12.201Z,14.10
2023-04-20T13:56:38.929Z,14.20
2023-04-20T13:59:07.857Z,14.80
2023-04-20T14:01:36.917Z,14.60
2023-04-20T14:04:04.850Z,14.20
2023-04-20T14:06:36.412Z,13.70
2023-04-20T14:09:03.185Z,13.40
2023-04-20T14:11:29.886Z,13.20
2023-04-20T14:13:56.628Z,13.10
2023-04-20T14:16:25.329Z,13.20
2023-04-20T14:18:52.171Z,13.50
2023-04-20T14:21:18.865Z,13.90
2023-04-20T14:23:45.734Z,13.70
2023-04-20T14:26:13.709Z,13.30
2023-04-20T14:28:40.386Z,12.90
2023-04-20T14:31:07.119Z,12.50
2023-04-20T14:33:33.820Z,12.50
2023-04-20T14:36:05.547Z,12.20
2023-04-20T14:38:32.203Z,12.20
2023-04-20T14:40:59.219Z,12.40
2023-04-20T14:43:26.046Z,12.30
2023-04-20T14:45:52.871Z,12.30
2023-04-20T14:48:19.605Z,12.30
2023-04-20T14:50:48.518Z,12.20
2023-04-20T14:53:17.318Z,12.20
2023-04-20T14:55:44.022Z,12.00
2023-04-20T14:58:10.848Z,12.00
2023-04-20T15:00:37.572Z,11.90
2023-04-20T15:03:04.609Z,12.00
2023-04-20T15:05:31.675Z,12.10
2023-04-20T15:07:58.397Z,12.20
2023-04-20T15:10:25.368Z,12.30
2023-04-20T15:12:52.042Z,12.50
2023-04-20T15:15:18.875Z,12.50
2023-04-20T15:17:48.597Z,12.50
2023-04-20T15:20:15.739Z,12.60
2023-04-20T15:22:42.470Z,13.20
2023-04-20T15:32:41.987Z,16.50
2023-04-20T15:35:08.835Z,16.80
2023-04-20T15:40:05.484Z,17.50
2023-04-20T15:42:32.991Z,17.60
2023-04-20T15:44:59.691Z,16.50
2023-04-20T15:47:26.432Z,16.10
2023-04-20T15:50:01.221Z,15.80
2023-04-20T15:54:55.728Z,14.90
2023-04-20T15:57:24.930Z,14.80
2023-04-20T15:59:51.588Z,14.90
2023-04-20T16:02:18.368Z,14.80
2023-04-20T16:09:41.429Z,13.40
2023-04-20T16:59:08.825Z,10.70
2023-04-20T17:01:35.638Z,10.70
2023-04-20T17:04:02.718Z,10.70
2023-04-20T17:06:29.600Z,10.70
2023-04-20T17:09:05.346Z,10.70
2023-04-20T17:11:35.779Z,10.60
2023-04-20T17:14:03.332Z,10.60
2023-04-20T17:16:30.288Z,10.60
2023-04-20T17:18:57.070Z,10.60
2023-04-20T17:21:23.987Z,10.50
2023-04-20T17:23:50.755Z,10.60
2023-04-20T17:26:19.644Z,10.60
2023-04-20T17:28:47.032Z,10.60
2023-04-20T17:31:13.764Z,10.60
2023-04-20T17:33:40.624Z,10.70
2023-04-20T17:36:07.436Z,10.70
2023-04-20T17:38:36.626Z,10.70
2023-04-20T17:41:03.807Z,10.80
2023-04-20T17:43:30.903Z,10.80
2023-04-20T17:46:00.743Z,10.70
2023-04-20T17:48:27.451Z,10.70
2023-04-20T17:50:54.467Z,10.60
2023-04-20T17:53:21.319Z,10.60
2023-04-20T17:55:48.111Z,10.60
2023-04-20T20:45:01.588Z,9.30
2023-04-20T20:47:30.692Z,9.30
2023-04-20T20:59:53.622Z,8.80
2023-04-20T21:09:52.716Z,8.70
2023-04-20T21:12:19.405Z,8.70
2023-04-20T21:14:51.233Z,8.80
2023-04-20T21:17:18.649Z,8.80
2023-04-20T21:19:45.767Z,8.80
2023-04-20T21:22:12.651Z,8.90
2023-04-20T21:24:41.484Z,8.90
2023-04-20T21:27:08.264Z,8.80
2023-04-20T21:29:37.465Z,8.80
2023-04-20T21:32:04.536Z,8.80
2023-04-20T22:11:38.378Z,8.90
2023-04-20T22:14:07.365Z,8.90
2023-04-20T22:16:34.133Z,8.80
2023-04-20T22:19:01.322Z,8.70
2023-04-20T22:21:28.438Z,8.70
2023-04-20T22:23:55.338Z,8.70
2023-04-20T22:26:22.072Z,8.70
2023-04-20T22:28:48.745Z,8.70
2023-04-20T22:31:16.145Z,8.60
2023-04-20T22:33:42.953Z,8.70
2023-04-20T22:36:12.406Z,8.70
2023-04-20T22:38:41.390Z,8.70
2023-04-20T22:41:08.098Z,8.80
2023-04-20T22:43:34.795Z,8.90
2023-04-20T22:46:01.434Z,9.00
2023-04-20T22:48:28.765Z,9.00
2023-04-20T22:50:55.607Z,9.00
2023-04-20T22:53:22.333Z,8.90
2023-04-20T22:55:51.402Z,8.90
